Terminal Aerodrome Forecast
Issued by NWS

Home | Current Version | Previous Version | Text Only | Print | Product List | Glossary On
Versions: 1 2 3 4 5 6 7 8 9 10 11 12 13 14 15 16 17 18 19 20 21 22 23 24
011
FTUS43 KICT 262324
TAFRSL
TAF
KRSL 262324Z 2700/2724 12010KT P6SM VCTS BKN040CB
      TEMPO 2700/2703 VRB20G40KT 2SM +TSRA OVC020CB
     FM270300 13014KT P6SM VCTS BKN030CB
     FM270800 14008KT 6SM BR BKN012
     FM271100 15008KT 6SM BR OVC009
     FM271600 16015KT P6SM SCT035=

USA.gov is the U.S. government's official web portal to all federal, state and local government web resources and services.